River Of Ponds, Canada
Current Conditions -  °F | °C
As of 10:00 PM on Friday 24 Oct 2014 (Local Time) from CWDH Reporting Station
Scattered Clouds Scattered Clouds  
Wind Chill: 36°   Ceiling: Unl
Heat Index: 42°   Visibility: 8mi
Dew Point: 32°   Wind: 10mph
Humidity: 67%   Direction: 70°ENE
Pressure: 29.76"   Gusts: NA
Location:  50.53°N, 57.38°W
Report Text: CWDH 250000Z AUTO 07009KT 8SM SCT031 SCT044 06/M00 A2976 RMK SLP079 PK WND 07019/// T00551002 10128 20055 WSI/SWOB
Loading
Personal Weather Stations






























Interactive Weather Map New forecast layout! Learn more

10-Day Weather Forecast

Advertisements
Track Severe Weather on mobile